sensor_id;sensor_type;location;lat;lon;timestamp;temperature;humidity
12870;DHT22;6503;48.572;13.460;2022-11-20T00:01:30;2.90;99.90
12870;DHT22;6503;48.572;13.460;2022-11-20T00:03:58;2.90;99.90
12870;DHT22;6503;48.572;13.460;2022-11-20T00:06:26;2.90;99.90
12870;DHT22;6503;48.572;13.460;2022-11-20T00:08:55;3.00;99.90
12870;DHT22;6503;48.572;13.460;2022-11-20T00:11:24;2.80;99.90
12870;DHT22;6503;48.572;13.460;2022-11-20T00:13:53;2.70;99.90
12870;DHT22;6503;48.572;13.460;2022-11-20T00:16:27;2.70;99.90
12870;DHT22;6503;48.572;13.460;2022-11-20T00:19:02;2.80;99.90
12870;DHT22;6503;48.572;13.460;2022-11-20T00:21:31;2.80;99.90
12870;DHT22;6503;48.572;13.460;2022-11-20T00:23:58;2.90;99.90
12870;DHT22;6503;48.572;13.460;2022-11-20T00:26:39;2.90;99.90
12870;DHT22;6503;48.572;13.460;2022-11-20T00:29:09;2.90;99.90
12870;DHT22;6503;48.572;13.460;2022-11-20T00:31:36;3.00;99.90
12870;DHT22;6503;48.572;13.460;2022-11-20T00:34:04;3.00;99.90
12870;DHT22;6503;48.572;13.460;2022-11-20T00:36:33;3.00;99.90
12870;DHT22;6503;48.572;13.460;2022-11-20T00:39:00;3.00;99.90
12870;DHT22;6503;48.572;13.460;2022-11-20T00:41:29;3.00;99.90
12870;DHT22;6503;48.572;13.460;2022-11-20T00:43:56;3.00;99.90
12870;DHT22;6503;48.572;13.460;2022-11-20T00:46:24;3.00;99.90
12870;DHT22;6503;48.572;13.460;2022-11-20T00:48:51;3.10;99.90
12870;DHT22;6503;48.572;13.460;2022-11-20T00:51:22;3.10;99.90
12870;DHT22;6503;48.572;13.460;2022-11-20T00:53:49;3.00;99.90
12870;DHT22;6503;48.572;13.460;2022-11-20T00:56:18;3.00;99.90
12870;DHT22;6503;48.572;13.460;2022-11-20T00:58:47;3.00;99.90
12870;DHT22;6503;48.572;13.460;2022-11-20T01:01:17;3.00;99.90
12870;DHT22;6503;48.572;13.460;2022-11-20T01:03:45;3.00;99.90
12870;DHT22;6503;48.572;13.460;2022-11-20T01:06:14;3.00;99.90
12870;DHT22;6503;48.572;13.460;2022-11-20T01:08:44;3.00;99.90
12870;DHT22;6503;48.572;13.460;2022-11-20T01:11:14;3.00;99.90
12870;DHT22;6503;48.572;13.460;2022-11-20T01:13:41;3.00;99.90
12870;DHT22;6503;48.572;13.460;2022-11-20T01:16:10;3.00;99.90
12870;DHT22;6503;48.572;13.460;2022-11-20T01:18:39;3.00;99.90
12870;DHT22;6503;48.572;13.460;2022-11-20T01:21:09;3.00;99.90
12870;DHT22;6503;48.572;13.460;2022-11-20T01:23:38;3.00;99.90
12870;DHT22;6503;48.572;13.460;2022-11-20T01:26:12;3.00;99.90
12870;DHT22;6503;48.572;13.460;2022-11-20T01:28:39;3.00;99.90
12870;DHT22;6503;48.572;13.460;2022-11-20T01:31:13;3.00;99.90
12870;DHT22;6503;48.572;13.460;2022-11-20T01:33:41;2.90;99.90
12870;DHT22;6503;48.572;13.460;2022-11-20T01:36:09;2.90;99.90
12870;DHT22;6503;48.572;13.460;2022-11-20T01:38:36;2.90;99.90
12870;DHT22;6503;48.572;13.460;2022-11-20T01:41:03;3.00;99.90
12870;DHT22;6503;48.572;13.460;2022-11-20T01:43:32;3.00;99.90
12870;DHT22;6503;48.572;13.460;2022-11-20T01:46:15;3.00;99.90
12870;DHT22;6503;48.572;13.460;2022-11-20T01:48:47;3.00;99.90
12870;DHT22;6503;48.572;13.460;2022-11-20T01:51:20;3.00;99.90
12870;DHT22;6503;48.572;13.460;2022-11-20T01:53:49;3.10;99.90
12870;DHT22;6503;48.572;13.460;2022-11-20T01:56:17;3.10;99.90
12870;DHT22;6503;48.572;13.460;2022-11-20T01:58:48;3.00;99.90
12870;DHT22;6503;48.572;13.460;2022-11-20T02:01:16;3.00;99.90
12870;DHT22;6503;48.572;13.460;2022-11-20T02:03:44;3.00;99.90
12870;DHT22;6503;48.572;13.460;2022-11-20T02:06:16;3.00;99.90
12870;DHT22;6503;48.572;13.460;2022-11-20T02:08:43;3.00;99.90
12870;DHT22;6503;48.572;13.460;2022-11-20T02:11:10;3.10;99.90
12870;DHT22;6503;48.572;13.460;2022-11-20T02:13:38;2.90;99.90
12870;DHT22;6503;48.572;13.460;2022-11-20T02:16:20;2.90;99.90
12870;DHT22;6503;48.572;13.460;2022-11-20T02:18:48;2.90;99.90
12870;DHT22;6503;48.572;13.460;2022-11-20T02:21:28;3.00;99.90
12870;DHT22;6503;48.572;13.460;2022-11-20T02:24:10;3.00;99.90
12870;DHT22;6503;48.572;13.460;2022-11-20T02:26:46;3.00;99.90
12870;DHT22;6503;48.572;13.460;2022-11-20T02:29:17;3.10;99.90
12870;DHT22;6503;48.572;13.460;2022-11-20T02:31:45;3.10;99.90
12870;DHT22;6503;48.572;13.460;2022-11-20T02:34:12;3.10;99.90
12870;DHT22;6503;48.572;13.460;2022-11-20T02:36:40;3.00;99.90
12870;DHT22;6503;48.572;13.460;2022-11-20T02:39:10;3.00;99.90
12870;DHT22;6503;48.572;13.460;2022-11-20T02:41:38;3.00;99.90
12870;DHT22;6503;48.572;13.460;2022-11-20T02:44:06;3.00;99.90
12870;DHT22;6503;48.572;13.460;2022-11-20T02:46:33;3.00;99.90
12870;DHT22;6503;48.572;13.460;2022-11-20T02:49:01;3.10;99.90
12870;DHT22;6503;48.572;13.460;2022-11-20T02:51:29;3.00;99.90
12870;DHT22;6503;48.572;13.460;2022-11-20T02:53:56;3.00;99.90
12870;DHT22;6503;48.572;13.460;2022-11-20T02:56:25;3.00;99.90
12870;DHT22;6503;48.572;13.460;2022-11-20T02:58:52;3.00;99.90
12870;DHT22;6503;48.572;13.460;2022-11-20T03:01:19;3.00;99.90
12870;DHT22;6503;48.572;13.460;2022-11-20T03:03:45;3.00;99.90
12870;DHT22;6503;48.572;13.460;2022-11-20T03:06:14;3.00;99.90
12870;DHT22;6503;48.572;13.460;2022-11-20T03:08:41;3.10;99.90
12870;DHT22;6503;48.572;13.460;2022-11-20T03:11:08;3.00;99.90
12870;DHT22;6503;48.572;13.460;2022-11-20T03:13:37;2.90;99.90
12870;DHT22;6503;48.572;13.460;2022-11-20T03:16:12;2.90;99.90
12870;DHT22;6503;48.572;13.460;2022-11-20T03:18:40;2.80;99.90
12870;DHT22;6503;48.572;13.460;2022-11-20T03:21:08;2.80;99.90
12870;DHT22;6503;48.572;13.460;2022-11-20T03:23:37;2.80;99.90
12870;DHT22;6503;48.572;13.460;2022-11-20T03:26:10;2.90;99.90
12870;DHT22;6503;48.572;13.460;2022-11-20T03:28:40;2.90;99.90
12870;DHT22;6503;48.572;13.460;2022-11-20T03:31:08;2.80;99.90
12870;DHT22;6503;48.572;13.460;2022-11-20T03:33:36;2.80;99.90
12870;DHT22;6503;48.572;13.460;2022-11-20T03:36:05;2.90;99.90
12870;DHT22;6503;48.572;13.460;2022-11-20T03:38:33;3.00;99.90
12870;DHT22;6503;48.572;13.460;2022-11-20T03:41:02;3.00;99.90
12870;DHT22;6503;48.572;13.460;2022-11-20T03:43:31;3.00;99.90
12870;DHT22;6503;48.572;13.460;2022-11-20T03:45:59;3.10;99.90
12870;DHT22;6503;48.572;13.460;2022-11-20T03:48:27;3.10;99.90
12870;DHT22;6503;48.572;13.460;2022-11-20T03:51:08;3.00;99.90
12870;DHT22;6503;48.572;13.460;2022-11-20T03:53:36;3.10;99.90
12870;DHT22;6503;48.572;13.460;2022-11-20T03:56:03;3.10;99.90
12870;DHT22;6503;48.572;13.460;2022-11-20T03:58:30;3.10;99.90
12870;DHT22;6503;48.572;13.460;2022-11-20T04:01:04;3.10;99.90
12870;DHT22;6503;48.572;13.460;2022-11-20T04:03:32;3.20;99.90
12870;DHT22;6503;48.572;13.460;2022-11-20T04:06:02;3.20;99.90
12870;DHT22;6503;48.572;13.460;2022-11-20T04:08:29;3.20;99.90
12870;DHT22;6503;48.572;13.460;2022-11-20T04:10:56;3.20;99.90
12870;DHT22;6503;48.572;13.460;2022-11-20T04:13:23;3.20;99.90
12870;DHT22;6503;48.572;13.460;2022-11-20T04:15:50;3.20;99.90
12870;DHT22;6503;48.572;13.460;2022-11-20T04:18:19;3.20;99.90
12870;DHT22;6503;48.572;13.460;2022-11-20T04:20:47;3.20;99.90
12870;DHT22;6503;48.572;13.460;2022-11-20T04:23:14;3.20;99.90
12870;DHT22;6503;48.572;13.460;2022-11-20T04:25:41;3.20;99.90
12870;DHT22;6503;48.572;13.460;2022-11-20T04:28:09;3.10;99.90
12870;DHT22;6503;48.572;13.460;2022-11-20T04:30:36;3.20;99.90
12870;DHT22;6503;48.572;13.460;2022-11-20T04:33:04;3.20;99.90
12870;DHT22;6503;48.572;13.460;2022-11-20T04:35:35;3.20;99.90
12870;DHT22;6503;48.572;13.460;2022-11-20T04:38:03;3.30;99.90
12870;DHT22;6503;48.572;13.460;2022-11-20T04:40:31;3.30;99.90
12870;DHT22;6503;48.572;13.460;2022-11-20T04:42:59;3.30;99.90
12870;DHT22;6503;48.572;13.460;2022-11-20T04:45:27;3.30;99.90
12870;DHT22;6503;48.572;13.460;2022-11-20T04:47:54;3.30;99.90
12870;DHT22;6503;48.572;13.460;2022-11-20T04:50:21;3.40;99.90
12870;DHT22;6503;48.572;13.460;2022-11-20T04:52:50;3.30;99.90
12870;DHT22;6503;48.572;13.460;2022-11-20T04:55:17;3.30;99.90
12870;DHT22;6503;48.572;13.460;2022-11-20T04:57:43;3.30;99.90
12870;DHT22;6503;48.572;13.460;2022-11-20T05:00:12;3.30;99.90
12870;DHT22;6503;48.572;13.460;2022-11-20T05:02:39;3.30;99.90
12870;DHT22;6503;48.572;13.460;2022-11-20T05:05:06;3.20;99.90
12870;DHT22;6503;48.572;13.460;2022-11-20T05:07:34;3.30;99.90
12870;DHT22;6503;48.572;13.460;2022-11-20T05:10:04;3.30;99.90
12870;DHT22;6503;48.572;13.460;2022-11-20T05:12:31;3.30;99.90
12870;DHT22;6503;48.572;13.460;2022-11-20T05:14:58;3.20;99.90
12870;DHT22;6503;48.572;13.460;2022-11-20T05:17:25;3.10;99.90
12870;DHT22;6503;48.572;13.460;2022-11-20T05:19:52;3.20;99.90
12870;DHT22;6503;48.572;13.460;2022-11-20T05:22:19;3.20;99.90
12870;DHT22;6503;48.572;13.460;2022-11-20T05:24:46;3.30;99.90
12870;DHT22;6503;48.572;13.460;2022-11-20T05:27:15;3.30;99.90
12870;DHT22;6503;48.572;13.460;2022-11-20T05:29:42;3.30;99.90
12870;DHT22;6503;48.572;13.460;2022-11-20T05:32:11;3.40;99.90
12870;DHT22;6503;48.572;13.460;2022-11-20T05:34:38;3.40;99.90
12870;DHT22;6503;48.572;13.460;2022-11-20T05:37:05;3.30;99.90
12870;DHT22;6503;48.572;13.460;2022-11-20T05:39:32;3.30;99.90
12870;DHT22;6503;48.572;13.460;2022-11-20T05:41:59;3.30;99.90
12870;DHT22;6503;48.572;13.460;2022-11-20T05:44:45;3.30;99.90
12870;DHT22;6503;48.572;13.460;2022-11-20T05:47:12;3.40;99.90
12870;DHT22;6503;48.572;13.460;2022-11-20T05:49:44;3.40;99.90
12870;DHT22;6503;48.572;13.460;2022-11-20T05:52:11;3.40;99.90
12870;DHT22;6503;48.572;13.460;2022-11-20T05:54:38;3.40;99.90
12870;DHT22;6503;48.572;13.460;2022-11-20T05:57:05;3.40;99.90
12870;DHT22;6503;48.572;13.460;2022-11-20T05:59:32;3.40;99.90
12870;DHT22;6503;48.572;13.460;2022-11-20T06:02:01;3.50;99.90
12870;DHT22;6503;48.572;13.460;2022-11-20T06:04:28;3.50;99.90
12870;DHT22;6503;48.572;13.460;2022-11-20T06:06:55;3.40;99.90
12870;DHT22;6503;48.572;13.460;2022-11-20T06:09:22;3.30;99.90
12870;DHT22;6503;48.572;13.460;2022-11-20T06:11:49;3.30;99.90
12870;DHT22;6503;48.572;13.460;2022-11-20T06:14:15;3.40;99.90
12870;DHT22;6503;48.572;13.460;2022-11-20T06:16:42;3.40;99.90
12870;DHT22;6503;48.572;13.460;2022-11-20T06:19:11;3.40;99.90
12870;DHT22;6503;48.572;13.460;2022-11-20T06:21:38;3.40;99.90
12870;DHT22;6503;48.572;13.460;2022-11-20T06:24:05;3.50;99.90
12870;DHT22;6503;48.572;13.460;2022-11-20T06:26:32;3.50;99.90
12870;DHT22;6503;48.572;13.460;2022-11-20T06:28:59;3.50;99.90
12870;DHT22;6503;48.572;13.460;2022-11-20T06:31:27;3.60;99.90
12870;DHT22;6503;48.572;13.460;2022-11-20T06:33:54;3.60;99.90
12870;DHT22;6503;48.572;13.460;2022-11-20T06:36:23;3.60;99.90
12870;DHT22;6503;48.572;13.460;2022-11-20T06:38:50;3.70;99.90
12870;DHT22;6503;48.572;13.460;2022-11-20T06:41:19;3.70;99.90
12870;DHT22;6503;48.572;13.460;2022-11-20T06:43:46;3.70;99.90
12870;DHT22;6503;48.572;13.460;2022-11-20T06:46:14;3.70;99.90
12870;DHT22;6503;48.572;13.460;2022-11-20T06:48:44;3.70;99.90
12870;DHT22;6503;48.572;13.460;2022-11-20T06:51:11;3.60;99.90
12870;DHT22;6503;48.572;13.460;2022-11-20T06:53:40;3.60;99.90
12870;DHT22;6503;48.572;13.460;2022-11-20T06:56:08;3.60;99.90
12870;DHT22;6503;48.572;13.460;2022-11-20T06:58:36;3.70;99.90
12870;DHT22;6503;48.572;13.460;2022-11-20T07:01:05;3.60;99.90
12870;DHT22;6503;48.572;13.460;2022-11-20T07:03:34;3.70;99.90
12870;DHT22;6503;48.572;13.460;2022-11-20T07:06:01;3.70;99.90
12870;DHT22;6503;48.572;13.460;2022-11-20T07:08:29;3.70;99.90
12870;DHT22;6503;48.572;13.460;2022-11-20T07:10:59;3.70;99.90
12870;DHT22;6503;48.572;13.460;2022-11-20T07:13:27;3.70;99.90
12870;DHT22;6503;48.572;13.460;2022-11-20T07:15:54;3.70;99.90
12870;DHT22;6503;48.572;13.460;2022-11-20T07:18:21;3.80;99.90
12870;DHT22;6503;48.572;13.460;2022-11-20T07:20:48;3.80;99.90
12870;DHT22;6503;48.572;13.460;2022-11-20T07:23:15;3.80;99.90
12870;DHT22;6503;48.572;13.460;2022-11-20T07:25:43;3.80;99.90
12870;DHT22;6503;48.572;13.460;2022-11-20T07:28:11;3.80;99.90
12870;DHT22;6503;48.572;13.460;2022-11-20T07:30:39;3.80;99.90
12870;DHT22;6503;48.572;13.460;2022-11-20T07:33:06;3.90;99.90
12870;DHT22;6503;48.572;13.460;2022-11-20T07:35:32;3.80;99.90
12870;DHT22;6503;48.572;13.460;2022-11-20T07:37:59;3.80;99.90
12870;DHT22;6503;48.572;13.460;2022-11-20T07:40:26;3.80;99.90
12870;DHT22;6503;48.572;13.460;2022-11-20T07:42:55;3.70;99.90
12870;DHT22;6503;48.572;13.460;2022-11-20T07:45:24;3.80;99.90
12870;DHT22;6503;48.572;13.460;2022-11-20T07:47:51;3.80;99.90
12870;DHT22;6503;48.572;13.460;2022-11-20T07:50:20;3.70;99.90
12870;DHT22;6503;48.572;13.460;2022-11-20T07:52:47;3.80;99.90
12870;DHT22;6503;48.572;13.460;2022-11-20T07:55:15;3.80;99.90
12870;DHT22;6503;48.572;13.460;2022-11-20T07:57:42;3.90;99.90
12870;DHT22;6503;48.572;13.460;2022-11-20T08:00:11;3.90;99.90
12870;DHT22;6503;48.572;13.460;2022-11-20T08:02:41;4.00;99.90
12870;DHT22;6503;48.572;13.460;2022-11-20T08:05:09;4.00;99.90
12870;DHT22;6503;48.572;13.460;2022-11-20T08:07:37;4.10;99.90
12870;DHT22;6503;48.572;13.460;2022-11-20T08:10:07;4.00;99.90
12870;DHT22;6503;48.572;13.460;2022-11-20T08:12:34;4.00;99.90
12870;DHT22;6503;48.572;13.460;2022-11-20T08:15:18;4.10;99.90
12870;DHT22;6503;48.572;13.460;2022-11-20T08:17:46;4.10;99.90
12870;DHT22;6503;48.572;13.460;2022-11-20T08:20:13;4.20;99.90
12870;DHT22;6503;48.572;13.460;2022-11-20T08:22:40;4.20;99.90
12870;DHT22;6503;48.572;13.460;2022-11-20T08:25:10;4.20;99.90
12870;DHT22;6503;48.572;13.460;2022-11-20T08:27:38;4.10;99.90
12870;DHT22;6503;48.572;13.460;2022-11-20T08:30:07;4.10;99.90
12870;DHT22;6503;48.572;13.460;2022-11-20T08:32:34;4.20;99.90
12870;DHT22;6503;48.572;13.460;2022-11-20T08:35:05;4.20;99.90
12870;DHT22;6503;48.572;13.460;2022-11-20T08:37:33;4.30;99.90
12870;DHT22;6503;48.572;13.460;2022-11-20T08:40:01;4.30;99.90
12870;DHT22;6503;48.572;13.460;2022-11-20T08:42:28;4.40;99.90
12870;DHT22;6503;48.572;13.460;2022-11-20T08:44:54;4.40;99.90
12870;DHT22;6503;48.572;13.460;2022-11-20T08:47:22;4.50;99.90
12870;DHT22;6503;48.572;13.460;2022-11-20T08:49:48;4.50;99.90
12870;DHT22;6503;48.572;13.460;2022-11-20T08:52:17;4.50;99.90
12870;DHT22;6503;48.572;13.460;2022-11-20T08:54:46;4.60;99.90
12870;DHT22;6503;48.572;13.460;2022-11-20T08:57:13;4.60;99.90
12870;DHT22;6503;48.572;13.460;2022-11-20T08:59:42;4.60;99.90
12870;DHT22;6503;48.572;13.460;2022-11-20T09:02:09;4.60;99.90
12870;DHT22;6503;48.572;13.460;2022-11-20T09:04:37;4.60;99.90
12870;DHT22;6503;48.572;13.460;2022-11-20T09:07:04;4.60;99.90
12870;DHT22;6503;48.572;13.460;2022-11-20T09:09:34;4.60;99.90
12870;DHT22;6503;48.572;13.460;2022-11-20T09:12:03;4.60;99.90
12870;DHT22;6503;48.572;13.460;2022-11-20T09:14:30;4.60;99.90
12870;DHT22;6503;48.572;13.460;2022-11-20T09:16:57;4.60;99.90
12870;DHT22;6503;48.572;13.460;2022-11-20T09:19:25;4.60;99.90
12870;DHT22;6503;48.572;13.460;2022-11-20T09:21:52;4.70;99.90
12870;DHT22;6503;48.572;13.460;2022-11-20T09:24:19;4.70;99.90
12870;DHT22;6503;48.572;13.460;2022-11-20T09:26:48;4.80;99.90
12870;DHT22;6503;48.572;13.460;2022-11-20T09:29:15;4.80;99.90
12870;DHT22;6503;48.572;13.460;2022-11-20T09:31:42;4.80;99.90
12870;DHT22;6503;48.572;13.460;2022-11-20T09:34:11;4.80;99.90
12870;DHT22;6503;48.572;13.460;2022-11-20T09:36:38;4.80;99.90
12870;DHT22;6503;48.572;13.460;2022-11-20T09:39:05;4.80;99.90
12870;DHT22;6503;48.572;13.460;2022-11-20T09:41:58;4.80;99.90
12870;DHT22;6503;48.572;13.460;2022-11-20T09:44:40;4.80;99.90
12870;DHT22;6503;48.572;13.460;2022-11-20T09:47:18;4.80;99.90
12870;DHT22;6503;48.572;13.460;2022-11-20T09:50:02;4.80;99.90
12870;DHT22;6503;48.572;13.460;2022-11-20T09:52:39;4.80;99.90
12870;DHT22;6503;48.572;13.460;2022-11-20T09:55:10;4.80;99.90
12870;DHT22;6503;48.572;13.460;2022-11-20T09:57:40;4.90;99.90
12870;DHT22;6503;48.572;13.460;2022-11-20T10:00:11;5.10;99.90
12870;DHT22;6503;48.572;13.460;2022-11-20T10:02:42;5.30;99.90
12870;DHT22;6503;48.572;13.460;2022-11-20T10:05:17;5.30;99.90
12870;DHT22;6503;48.572;13.460;2022-11-20T10:07:48;5.40;99.90
12870;DHT22;6503;48.572;13.460;2022-11-20T10:10:31;5.40;99.90
12870;DHT22;6503;48.572;13.460;2022-11-20T10:13:15;5.50;99.90
12870;DHT22;6503;48.572;13.460;2022-11-20T10:15:52;5.50;99.90
12870;DHT22;6503;48.572;13.460;2022-11-20T10:18:33;5.60;99.90
12870;DHT22;6503;48.572;13.460;2022-11-20T10:21:10;5.60;99.90
12870;DHT22;6503;48.572;13.460;2022-11-20T10:23:59;5.70;99.90
12870;DHT22;6503;48.572;13.460;2022-11-20T10:26:43;5.70;99.90
12870;DHT22;6503;48.572;13.460;2022-11-20T10:29:16;5.70;99.90
12870;DHT22;6503;48.572;13.460;2022-11-20T10:31:45;5.70;99.90
12870;DHT22;6503;48.572;13.460;2022-11-20T10:34:19;5.70;99.90
12870;DHT22;6503;48.572;13.460;2022-11-20T10:36:54;5.70;99.90
12870;DHT22;6503;48.572;13.460;2022-11-20T10:39:28;5.70;99.90
12870;DHT22;6503;48.572;13.460;2022-11-20T10:41:56;5.80;99.90
12870;DHT22;6503;48.572;13.460;2022-11-20T10:44:29;5.90;99.90
12870;DHT22;6503;48.572;13.460;2022-11-20T10:47:15;5.90;99.90
12870;DHT22;6503;48.572;13.460;2022-11-20T10:49:43;6.00;99.90
12870;DHT22;6503;48.572;13.460;2022-11-20T10:52:21;6.00;99.90
12870;DHT22;6503;48.572;13.460;2022-11-20T10:54:59;6.10;99.90
12870;DHT22;6503;48.572;13.460;2022-11-20T10:57:52;6.10;99.90
12870;DHT22;6503;48.572;13.460;2022-11-20T11:00:22;6.20;99.90
12870;DHT22;6503;48.572;13.460;2022-11-20T11:02:50;6.20;99.90
12870;DHT22;6503;48.572;13.460;2022-11-20T11:05:27;6.20;99.90
12870;DHT22;6503;48.572;13.460;2022-11-20T11:07:58;6.20;99.90
12870;DHT22;6503;48.572;13.460;2022-11-20T11:10:34;6.20;99.90
12870;DHT22;6503;48.572;13.460;2022-11-20T11:13:02;6.20;99.90
12870;DHT22;6503;48.572;13.460;2022-11-20T11:15:38;6.20;99.90
12870;DHT22;6503;48.572;13.460;2022-11-20T11:18:08;6.20;99.90
12870;DHT22;6503;48.572;13.460;2022-11-20T11:20:36;6.30;99.90
12870;DHT22;6503;48.572;13.460;2022-11-20T11:23:03;6.30;99.90
12870;DHT22;6503;48.572;13.460;2022-11-20T11:25:32;6.30;99.90
12870;DHT22;6503;48.572;13.460;2022-11-20T11:28:02;6.30;99.90
12870;DHT22;6503;48.572;13.460;2022-11-20T11:30:41;6.20;99.90
12870;DHT22;6503;48.572;13.460;2022-11-20T11:33:11;6.20;99.90
12870;DHT22;6503;48.572;13.460;2022-11-20T11:35:45;6.20;99.90
12870;DHT22;6503;48.572;13.460;2022-11-20T11:38:14;6.30;99.90
12870;DHT22;6503;48.572;13.460;2022-11-20T11:40:44;6.30;99.90
12870;DHT22;6503;48.572;13.460;2022-11-20T11:43:19;6.20;99.90
12870;DHT22;6503;48.572;13.460;2022-11-20T11:46:27;6.30;99.90
12870;DHT22;6503;48.572;13.460;2022-11-20T11:48:59;6.30;99.90
12870;DHT22;6503;48.572;13.460;2022-11-20T11:51:32;6.40;99.90
12870;DHT22;6503;48.572;13.460;2022-11-20T11:54:10;6.40;99.90
12870;DHT22;6503;48.572;13.460;2022-11-20T11:56:40;6.50;99.90
12870;DHT22;6503;48.572;13.460;2022-11-20T11:59:15;6.50;99.90
12870;DHT22;6503;48.572;13.460;2022-11-20T12:01:53;6.60;99.90
12870;DHT22;6503;48.572;13.460;2022-11-20T12:04:38;6.60;99.90
12870;DHT22;6503;48.572;13.460;2022-11-20T12:07:12;6.70;99.90
12870;DHT22;6503;48.572;13.460;2022-11-20T12:09:46;6.80;99.90
12870;DHT22;6503;48.572;13.460;2022-11-20T12:12:17;6.80;99.90
12870;DHT22;6503;48.572;13.460;2022-11-20T12:14:48;6.90;99.90
12870;DHT22;6503;48.572;13.460;2022-11-20T12:17:19;7.00;99.90
12870;DHT22;6503;48.572;13.460;2022-11-20T12:19:46;7.00;99.90
12870;DHT22;6503;48.572;13.460;2022-11-20T12:22:21;7.10;99.90
12870;DHT22;6503;48.572;13.460;2022-11-20T12:24:59;7.10;99.90
12870;DHT22;6503;48.572;13.460;2022-11-20T12:27:43;7.10;99.90
12870;DHT22;6503;48.572;13.460;2022-11-20T12:30:22;7.20;99.90
12870;DHT22;6503;48.572;13.460;2022-11-20T12:33:15;7.20;99.90
12870;DHT22;6503;48.572;13.460;2022-11-20T12:36:08;7.10;99.90
12870;DHT22;6503;48.572;13.460;2022-11-20T12:39:01;7.10;99.90
12870;DHT22;6503;48.572;13.460;2022-11-20T12:41:53;7.20;99.90
12870;DHT22;6503;48.572;13.460;2022-11-20T12:47:46;7.20;99.90
12870;DHT22;6503;48.572;13.460;2022-11-20T12:50:24;7.20;99.90
12870;DHT22;6503;48.572;13.460;2022-11-20T12:53:01;7.30;99.90
12870;DHT22;6503;48.572;13.460;2022-11-20T12:55:36;7.30;99.90
12870;DHT22;6503;48.572;13.460;2022-11-20T12:58:33;7.40;99.90
12870;DHT22;6503;48.572;13.460;2022-11-20T13:01:30;7.40;99.90
12870;DHT22;6503;48.572;13.460;2022-11-20T13:04:39;7.40;99.90
12870;DHT22;6503;48.572;13.460;2022-11-20T13:07:14;7.50;99.90
12870;DHT22;6503;48.572;13.460;2022-11-20T13:09:45;7.50;99.90
12870;DHT22;6503;48.572;13.460;2022-11-20T13:12:22;7.60;99.90
12870;DHT22;6503;48.572;13.460;2022-11-20T13:14:57;7.50;99.90
12870;DHT22;6503;48.572;13.460;2022-11-20T13:17:33;7.40;99.90
12870;DHT22;6503;48.572;13.460;2022-11-20T13:20:02;7.30;99.90
12870;DHT22;6503;48.572;13.460;2022-11-20T13:22:43;7.20;99.90
12870;DHT22;6503;48.572;13.460;2022-11-20T13:25:22;7.10;99.90
12870;DHT22;6503;48.572;13.460;2022-11-20T13:27:50;7.00;99.90
12870;DHT22;6503;48.572;13.460;2022-11-20T13:30:19;6.90;99.90
12870;DHT22;6503;48.572;13.460;2022-11-20T13:32:54;6.80;99.90
12870;DHT22;6503;48.572;13.460;2022-11-20T13:35:28;6.80;99.90
12870;DHT22;6503;48.572;13.460;2022-11-20T13:38:06;6.80;99.90
12870;DHT22;6503;48.572;13.460;2022-11-20T13:40:35;6.90;99.90
12870;DHT22;6503;48.572;13.460;2022-11-20T13:43:21;6.90;99.90
12870;DHT22;6503;48.572;13.460;2022-11-20T13:45:57;6.90;99.90
12870;DHT22;6503;48.572;13.460;2022-11-20T13:48:28;6.90;99.90
12870;DHT22;6503;48.572;13.460;2022-11-20T13:51:13;6.90;99.90
12870;DHT22;6503;48.572;13.460;2022-11-20T13:54:07;6.90;99.90
12870;DHT22;6503;48.572;13.460;2022-11-20T13:56:52;6.90;99.90
12870;DHT22;6503;48.572;13.460;2022-11-20T13:59:36;6.80;99.90
12870;DHT22;6503;48.572;13.460;2022-11-20T14:02:11;6.80;99.90
12870;DHT22;6503;48.572;13.460;2022-11-20T14:07:34;6.60;99.90
12870;DHT22;6503;48.572;13.460;2022-11-20T14:10:39;6.50;99.90
12870;DHT22;6503;48.572;13.460;2022-11-20T14:13:23;6.50;99.90
12870;DHT22;6503;48.572;13.460;2022-11-20T14:16:13;6.50;99.90
12870;DHT22;6503;48.572;13.460;2022-11-20T14:18:50;6.50;99.90
12870;DHT22;6503;48.572;13.460;2022-11-20T14:21:28;6.50;99.90
12870;DHT22;6503;48.572;13.460;2022-11-20T14:24:04;6.50;99.90
12870;DHT22;6503;48.572;13.460;2022-11-20T14:26:44;6.50;99.90
12870;DHT22;6503;48.572;13.460;2022-11-20T14:29:13;6.60;99.90
12870;DHT22;6503;48.572;13.460;2022-11-20T14:31:42;6.60;99.90
12870;DHT22;6503;48.572;13.460;2022-11-20T14:34:14;6.60;99.90
12870;DHT22;6503;48.572;13.460;2022-11-20T14:36:44;6.60;99.90
12870;DHT22;6503;48.572;13.460;2022-11-20T14:39:19;6.60;99.90
12870;DHT22;6503;48.572;13.460;2022-11-20T14:41:52;6.60;99.90
12870;DHT22;6503;48.572;13.460;2022-11-20T14:44:21;6.60;99.90
12870;DHT22;6503;48.572;13.460;2022-11-20T14:46:51;6.50;99.90
12870;DHT22;6503;48.572;13.460;2022-11-20T14:49:19;6.50;99.90
12870;DHT22;6503;48.572;13.460;2022-11-20T14:51:46;6.50;99.90
12870;DHT22;6503;48.572;13.460;2022-11-20T14:54:18;6.50;99.90
12870;DHT22;6503;48.572;13.460;2022-11-20T14:56:55;6.50;99.90
12870;DHT22;6503;48.572;13.460;2022-11-20T14:59:23;6.50;99.90
12870;DHT22;6503;48.572;13.460;2022-11-20T15:02:04;6.50;99.90
12870;DHT22;6503;48.572;13.460;2022-11-20T15:04:46;6.50;99.90
12870;DHT22;6503;48.572;13.460;2022-11-20T15:07:24;6.50;99.90
12870;DHT22;6503;48.572;13.460;2022-11-20T15:10:05;6.50;99.90
12870;DHT22;6503;48.572;13.460;2022-11-20T15:12:38;6.50;99.90
12870;DHT22;6503;48.572;13.460;2022-11-20T15:15:08;6.40;99.90
12870;DHT22;6503;48.572;13.460;2022-11-20T15:17:38;6.50;99.90
12870;DHT22;6503;48.572;13.460;2022-11-20T15:20:12;6.40;99.90
12870;DHT22;6503;48.572;13.460;2022-11-20T15:22:40;6.40;99.90
12870;DHT22;6503;48.572;13.460;2022-11-20T15:25:18;6.40;99.90
12870;DHT22;6503;48.572;13.460;2022-11-20T15:27:50;6.40;99.90
12870;DHT22;6503;48.572;13.460;2022-11-20T15:30:19;6.40;99.90
12870;DHT22;6503;48.572;13.460;2022-11-20T15:32:47;6.40;99.90
12870;DHT22;6503;48.572;13.460;2022-11-20T15:35:15;6.40;99.90
12870;DHT22;6503;48.572;13.460;2022-11-20T15:37:43;6.40;99.90
12870;DHT22;6503;48.572;13.460;2022-11-20T15:40:10;6.40;99.90
12870;DHT22;6503;48.572;13.460;2022-11-20T15:42:41;6.40;99.90
12870;DHT22;6503;48.572;13.460;2022-11-20T15:45:43;6.40;99.90
12870;DHT22;6503;48.572;13.460;2022-11-20T15:48:27;6.50;99.90
12870;DHT22;6503;48.572;13.460;2022-11-20T15:50:57;6.50;99.90
12870;DHT22;6503;48.572;13.460;2022-11-20T15:53:28;6.50;99.90
12870;DHT22;6503;48.572;13.460;2022-11-20T15:55:55;6.50;99.90
12870;DHT22;6503;48.572;13.460;2022-11-20T15:58:29;6.50;99.90
12870;DHT22;6503;48.572;13.460;2022-11-20T16:01:00;6.40;99.90
12870;DHT22;6503;48.572;13.460;2022-11-20T16:03:27;6.50;99.90
12870;DHT22;6503;48.572;13.460;2022-11-20T16:05:54;6.50;99.90
12870;DHT22;6503;48.572;13.460;2022-11-20T16:08:29;6.50;99.90
12870;DHT22;6503;48.572;13.460;2022-11-20T16:10:57;6.40;99.90
12870;DHT22;6503;48.572;13.460;2022-11-20T16:13:26;6.50;99.90
12870;DHT22;6503;48.572;13.460;2022-11-20T16:16:19;6.50;99.90
12870;DHT22;6503;48.572;13.460;2022-11-20T16:18:47;6.50;99.90